Startpagina
METAR-TAF:

METAR-TAF

Vliegvelden :

Atalaya, Peru

breedte: 10-43-45S, lengte: 073-46-00W, hoogte: 229 m

Actueel weer

Dit bericht is 4 uur en het 44 minuten geleden gemaakt, om 20:40 UTC
Wind 4 kt uit het oosten
Temperatuur 28°C
Vochtigheid 79%
Druk 1006 hPa
Zicht: 8000 m
Gebroken wolken op 1500 ft
Weinig wolken op 2000 ft, Cumulonimbus.
regen

METAR: SPAY 282040Z 09004KT 8000 RA BKN015 FEW020CB 28/24 Q1006

Tijdstip: 20:24 (01:24 UTC)


TAF: ontbreekt

Waarnemingen en weersverwachtingen van meer dan 4000 vliegvelden (METAR en TAF).

De beschikbare stations zijn de gele en rode punten op de kaart.

Ga met uw muis naar het station om de naam te zien.

Klik dan om waarnemingen en weersverwachtingen te zien.

kaart wijzigen: klik op de groene knoppen met een zwart kruis om in te zoomen, op de groene knop met een streepje om uit te zoomen of op de groene pijlen voor aangrenzende kaarten.


METAR-TAF: